• Join FlightAware (Why Join?)
  • Login
  • US Flag 
12:42PM EDT


 

Airport Tracker/Info


-or-


 

Live Flight TrackerFlight Track Log ✈ AWE914 ✈ 31-Jul-2013 ✈ KPHX - KSTL

Flight Track Log - Related Links

Times and Time Zones

All times are in EDT time to prevent confusion due to time zone crossing. See the AWE914 flight status page for this flight to view local times or setup timezone preferences in your user account.

Time Position Orientation Groundspeed Altitude Reporting Facility
EDT Latitude Longitude Course Direction KTS MPH feet Rate Location/Type
03:07AM 33.4333 -111.9833 67° East 130 150 1,800  Level Phoenix TRACON
03:08AM 33.4333 -111.9333 90° East 176 203 3,500 1,560 Climbing Phoenix TRACON
03:09AM 33.4500 -111.8500 76° East 250 288 5,000 1,800 Climbing Phoenix TRACON
03:10AM 33.4714 -111.8183 51° Northeast 277 319 6,200 2,580 Climbing Albuquerque Center
03:11AM 33.5144 -111.7372 58° Northeast 288 331 9,100 2,400 Climbing Albuquerque Center
03:12AM 33.7401 -111.1050 67° East  Level FlightAware Approximate
03:12AM 33.5481 -111.6461 66° East 300 345 11,100  Level Albuquerque Center
03:13AM 33.5878 -111.5403 66° East 351 404 13,200 2,340 Climbing Albuquerque Center
03:14AM 33.6281 -111.4319 66° East 358 412 15,900 2,400 Climbing Albuquerque Center
03:15AM 33.6686 -111.3231 66° East 360 414 18,100 1,980 Climbing Albuquerque Center
03:16AM 33.7103 -111.2089 66° East 373 429 20,000 1,800 Climbing Albuquerque Center
03:17AM 33.7522 -111.0897 67° East 387 445 21,800 1,680 Climbing Albuquerque Center
03:18AM 33.7956 -110.9664 67° East 400 460 23,400 1,560 Climbing Albuquerque Center
03:19AM 33.8406 -110.8394 67° East 410 472 25,000 1,500 Climbing Albuquerque Center
03:20AM 33.8858 -110.7106 67° East 416 479 26,500 1,320 Climbing Albuquerque Center
03:21AM 33.9339 -110.5778 66° East 427 491 27,700 1,260 Climbing Albuquerque Center
03:22AM 33.9803 -110.4425 68° East 436 502 29,100 1,140 Climbing Albuquerque Center
03:23AM 34.0336 -110.2944 66° East 446 513 30,100 1,080 Climbing Albuquerque Center
03:24AM 34.0836 -110.1522 67° East 458 527 31,300 1,080 Climbing Albuquerque Center
03:25AM 34.1328 -110.0114 67° East 460 529 32,300 1,200 Climbing Albuquerque Center
03:26AM 34.1889 -109.8492 67° East 466 536 33,800 1,140 Climbing Albuquerque Center
03:27AM 34.2356 -109.7128 67° East 463 533 34,700 900 Climbing Albuquerque Center
03:28AM 34.2828 -109.5764 67° East 461 531 35,700 960 Climbing Albuquerque Center
03:29AM 34.3292 -109.4389 68° East 462 532 36,700 1,080 Climbing Albuquerque Center
03:30AM 34.3836 -109.2786 68° East 462 532 37,900 840 Climbing Albuquerque Center
03:31AM 34.4303 -109.1433 67° East 459 528 38,400 540 Climbing Albuquerque Center
03:32AM 34.4761 -109.0067 68° East 459 528 39,000 240 Climbing Albuquerque Center
03:33AM 34.5300 -108.8439 68° East 463 533 39,000  Level Albuquerque Center
03:34AM 34.5761 -108.7069 68° East 462 532 39,000  Level Albuquerque Center
03:35AM 34.6222 -108.5683 68° East 463 533 39,000  Level Albuquerque Center
03:36AM 34.6756 -108.4075 68° East 462 532 39,000  Level Albuquerque Center
03:37AM 34.7214 -108.2686 68° East 463 533 39,000  Level Albuquerque Center
03:38AM 34.7644 -108.1369 68° East 464 534 39,000  Level Albuquerque Center
03:39AM 34.8133 -107.9911 68° East 465 535 39,000  Level Albuquerque Center
03:40AM 34.8594 -107.8442 69° East 464 534 39,000  Level Albuquerque Center
03:41AM 34.9067 -107.6961 69° East 469 540 39,000  Level Albuquerque Center
03:42AM 34.9536 -107.5492 69° East 468 539 39,000  Level Albuquerque Center
03:43AM 35.0075 -107.3856 68° East 470 541 39,000  Level Albuquerque Center
03:44AM 35.0542 -107.2372 69° East 469 540 39,000  Level Albuquerque Center
03:45AM 35.1044 -107.0786 69° East 467 537 39,000  Level Albuquerque Center
03:46AM 35.1519 -106.9325 68° East 463 533 39,000  Level Albuquerque Center
03:47AM 35.1978 -106.7850 69° East 464 534 39,000  Level Albuquerque Center
03:48AM 35.2453 -106.6372 68° East 465 535 39,000  Level Albuquerque Center
03:49AM 35.2881 -106.4919 70° East 465 535 39,000  Level Albuquerque Center
03:51AM 35.3694 -106.2283 69° East 463 533 39,000  Level Albuquerque Center
03:52AM 35.4156 -106.0911 68° East 465 535 39,000  Level Albuquerque Center
03:53AM 35.4600 -105.9433 70° East 464 534 39,000  Level Albuquerque Center
03:54AM 35.5031 -105.7906 71° East 466 536 39,000  Level Albuquerque Center
03:55AM 35.5478 -105.6414 70° East 468 539 39,000  Level Albuquerque Center
03:56AM 35.5939 -105.4903 69° East 466 536 39,100  Climbing Albuquerque Center
03:57AM 35.6400 -105.3392 69° East 467 537 39,000 -60 Descending Albuquerque Center
03:58AM 35.6844 -105.1903 70° East 462 532 39,000  Level Albuquerque Center
03:59AM 35.7281 -105.0394 70° East 462 532 39,000  Level Albuquerque Center
04:00AM 35.7725 -104.8897 70° East 461 531 39,000  Level Albuquerque Center
04:01AM 35.8144 -104.7422 71° East 454 522 39,000  Level Albuquerque Center
04:02AM 35.8658 -104.5656 70° East 461 531 39,000  Level Albuquerque Center
04:03AM 35.9103 -104.4131 70° East 464 534 39,000  Level Albuquerque Center
04:04AM 35.9536 -104.2619 70° East 463 533 39,000  Level Albuquerque Center
04:05AM 35.9972 -104.1103 70° East 462 532 39,000  Level Albuquerque Center
04:06AM 36.0408 -103.9581 70° East 464 534 39,000  Level Albuquerque Center
04:07AM 36.0842 -103.8033 71° East 468 539 39,000  Level Albuquerque Center
04:08AM 36.1269 -103.6503 71° East 468 539 39,000  Level Albuquerque Center
04:09AM 36.1639 -103.5242 70° East 465 535 39,000  Level Albuquerque Center
04:10AM 36.2061 -103.3681 71° East 471 542 39,000  Level Albuquerque Center
04:11AM 36.2489 -103.2128 71° East 471 542 39,000  Level Albuquerque Center
04:12AM 36.2911 -103.0575 71° East 471 542 39,000  Level Albuquerque Center
04:13AM 36.3375 -102.8861 71° East 471 542 39,000  Level Albuquerque Center
04:14AM 36.3803 -102.7308 71° East 474 545 39,000  Level Albuquerque Center
04:15AM 36.4217 -102.5750 72° East 474 545 39,000  Level Albuquerque Center
04:16AM 36.4636 -102.4183 72° East 477 549 39,000  Level Albuquerque Center
04:17AM 36.5047 -102.2625 72° East 476 548 39,000  Level Albuquerque Center
04:18AM 36.5464 -102.1086 71° East 472 543 39,000  Level Albuquerque Center
04:19AM 36.5872 -101.9536 72° East 471 542 39,000  Level Albuquerque Center
04:20AM 36.6294 -101.7947 72° East 473 544 39,000  Level Albuquerque Center
04:21AM 36.6675 -101.6447 72° East 475 547 39,000  Level Albuquerque Center
04:21AM 36.6928 -101.5431 73° East 478 550 39,000  Level Kansas City Center
04:23AM 36.7322 -101.3922 72° East 478 550 39,000  Level Kansas City Center
04:24AM 36.7708 -101.2414 72° East 479 551 39,000  Level Kansas City Center
04:25AM 36.8147 -101.0667 73° East 476 548 39,000  Level Kansas City Center
04:26AM 36.8536 -100.9169 72° East 476 548 39,000  Level Kansas City Center
04:27AM 36.8917 -100.7661 72° East 477 549 39,000  Level Kansas City Center
04:28AM 36.9358 -100.5889 73° East 480 552 39,000  Level Kansas City Center
04:29AM 36.9739 -100.4369 73° East 482 555 39,000  Level Kansas City Center
04:30AM 37.0108 -100.2847 73° East 480 552 39,000  Level Kansas City Center
04:31AM 37.0550 -100.1072 73° East 481 554 39,000  Level Kansas City Center
04:32AM 37.0917 -99.9550 73° East 480 552 39,000  Level Kansas City Center
04:33AM 37.1292 -99.8019 73° East 481 554 39,000  Level Kansas City Center
04:34AM 37.1719 -99.6217 73° East 484 557 39,000  Level Kansas City Center
04:35AM 37.2089 -99.4683 73° East 482 555 39,000  Level Kansas City Center
04:36AM 37.2444 -99.3169 74° East 488 562 39,000  Level Kansas City Center
04:37AM 37.2822 -99.1553 74° East 484 557 39,000  Level Kansas City Center
04:38AM 37.3211 -98.9869 74° East 485 558 39,000  Level Kansas City Center
04:39AM 37.3586 -98.8233 74° East 487 560 39,000  Level Kansas City Center
04:40AM 37.3964 -98.6600 74° East 487 560 39,000  Level Kansas City Center
04:41AM 37.4344 -98.4972 74° East 487 560 39,000  Level Kansas City Center
04:42AM 37.4706 -98.3361 74° East 485 558 39,000  Level Kansas City Center
04:43AM 37.5072 -98.1761 74° East 481 554 39,000  Level Kansas City Center
04:44AM 37.5489 -97.9850 75° East 477 549 39,000  Level Kansas City Center
04:45AM 37.5836 -97.8258 75° East 477 549 39,000  Level Kansas City Center
04:46AM 37.6206 -97.6644 74° East 484 557 39,000  Level Kansas City Center
04:47AM 37.6567 -97.4919 75° East 481 554 39,000  Level Kansas City Center
04:48AM 37.6925 -97.3392 73° East 490 564 39,100  Climbing Kansas City Center
04:49AM 37.7281 -97.1744 75° East 489 563 39,000 -60 Descending Kansas City Center
04:50AM 37.7628 -97.0114 75° East 485 558 39,000  Level Kansas City Center
04:51AM 37.7981 -96.8469 75° East 485 558 39,100  Climbing Kansas City Center
04:52AM 37.8325 -96.6858 75° East 479 551 39,000 -120 Descending Kansas City Center
04:53AM 37.8661 -96.5267 75° East 471 542 38,900  Descending Kansas City Center
04:54AM 37.8994 -96.3672 75° East 470 541 39,000  Climbing Kansas City Center
04:55AM 37.9319 -96.2075 75° East 470 541 39,000  Level Kansas City Center
04:56AM 37.9661 -96.0439 75° East 467 537 39,000  Level Kansas City Center
04:57AM 38.0019 -95.8619 76° East 474 545 39,000  Level Kansas City Center
04:58AM 38.0339 -95.7067 75° East 477 549 39,000  Level Kansas City Center
04:59AM 38.0647 -95.5517 76° East 475 547 39,000  Level Kansas City Center
05:00AM 38.1003 -95.3697 76° East 476 548 39,000  Level Kansas City Center
05:01AM 38.1319 -95.2136 75° East 478 550 39,000  Level Kansas City Center
05:02AM 38.1678 -95.0300 76° East 480 552 39,000  Level Kansas City Center
05:03AM 38.1975 -94.8711 77° East 483 556 39,000  Level Kansas City Center
05:04AM 38.2228 -94.7061 79° East 490 564 39,100  Climbing Kansas City Center
05:05AM 38.2469 -94.5150 81° East 493 567 39,000 -60 Descending Kansas City Center
05:06AM 38.2692 -94.3517 80° East 492 566 39,000  Level Kansas City Center
05:07AM 38.2917 -94.1892 80° East 491 565 39,000  Level Kansas City Center
05:08AM 38.3150 -94.0147 80° East 489 563 39,000  Level Kansas City Center
05:09AM 38.3375 -93.8447 80° East 487 560 39,000  Level Kansas City Center
05:10AM 38.3611 -93.6736 80° East 489 563 39,000  Level Kansas City Center
05:11AM 38.3828 -93.5036 81° East 487 560 39,000  Level Kansas City Center
05:12AM 38.4058 -93.3325 80° East 487 560 39,000  Level Kansas City Center
05:13AM 38.4281 -93.1622 80° East 485 558 39,000  Level Kansas City Center
05:14AM 38.4497 -92.9933 81° East 483 556 39,000 -660 Level Kansas City Center
05:15AM 38.4714 -92.8236 81° East 481 554 37,700 -1,980 Descending Kansas City Center
05:16AM 38.4925 -92.6517 81° East 485 558 35,100 -2,880 Descending Kansas City Center
05:17AM 38.5136 -92.4803 81° East 485 558 32,000 -3,060 Descending Kansas City Center
05:18AM 38.5336 -92.3078 82° East 486 559 28,800 -2,880 Descending Kansas City Center
05:19AM 38.5539 -92.1372 81° East 484 557 26,200 -2,520 Descending Kansas City Center
05:20AM 38.5714 -91.9761 82° East 464 534 23,900 -2,400 Descending Kansas City Center
05:21AM 38.5897 -91.8233 81° East 446 513 21,400 -2,340 Descending Kansas City Center
05:22AM 38.6061 -91.6764 82° East 433 498 19,300 -2,220 Descending Kansas City Center
05:23AM 38.6228 -91.5319 82° East 420 483 17,000 -2,160 Descending Kansas City Center
05:24AM 38.6381 -91.3922 82° East 409 471 14,900 -2,100 Descending Kansas City Center
05:25AM 38.6550 -91.2586 81° East 399 459 12,900 -1,920 Descending Kansas City Center
05:26AM 38.6689 -91.1275 82° East 386 444 11,100 -1,440 Descending Kansas City Center
05:27AM 38.6814 -91.0039 83° East 363 418 10,000 -540 Descending Kansas City Center
05:28AM 38.6950 -90.8789 82° East 357 411 10,000  Level Kansas City Center
05:29AM 38.7036 -90.7533 85° East 356 410 10,000 -600 Level Kansas City Center
05:30AM 38.6864 -90.6442 101° East 322 371 8,900 -1,380 Descending Kansas City Center
05:31AM 38.6661 -90.5197 102° East 306 352 7,300 -1,440 Descending Kansas City Center
05:32AM 38.6486 -90.4231 103° East 293 337 6,000 -1,200 Descending Kansas City Center
05:33AM 38.6350 -90.3397 102° East 277 319 5,000 -840 Descending Kansas City Center
05:34AM 38.6211 -90.2572 102° East 245 282 4,400 -840 Descending Kansas City Center
05:35AM 38.6578 -90.2211 38° Northeast 204 235 3,400 -1,140 Descending Kansas City Center
05:36AM 38.6956 -90.2525 327° Northwest 185 213 2,200 -1,020 Descending Kansas City Center
05:37AM 38.7167 -90.2953 302° West 162 186 1,400 -720 Descending Kansas City Center
05:38AM 38.7347 -90.3303 303° West 137 158 800 -360 Descending Kansas City Center
05:39AM 38.7528 -90.3664 303° West 134 154 700 -120 Descending Kansas City Center